YDRN weather

Drouin Airport
Drouin, Victoria, Australia

Public forecast

Using degrees Celsius for public forecast. Weather courtesy of forecast.io.

METAR (pilot weather report)

Closest report is Melbourne Essendon Airport, 52.6 nm (97.4 km) WNW. Retrieved 2019/02/16 20:00 UTC (1 hour ago):

YMEN 162000Z AUTO 36003KT 9999 // NCD 14/13 Q1012

TAF (pilot weather forecast)

Forecast is more than 12 hours old.

Closest forecast is Melbourne International Airport, 56.8 nm (105.1 km) NW. Retrieved 2019/02/15 00:00 UTC (2 days ago):

TAF YMML 152316Z 1600/1706 VRB04KT CAVOK FM160300 18014KT CAVOK BECMG 1611/1613 VRB05KT 9999 FEW004 BKN008 FM161800 VRB05KT 9999 FEW003 BKN006 BECMG 1622/1624 VRB05KT CAVOK PROB30 1618/1622 0500 FG BKN003